Time;durP1;ratioP1;P1;durP2;ratioP2;P2;SDS_P1;SDS_P2;PMS_P1;PMS_P2;Temp;Humidity;BMP_temperature;BMP_pressure;BME280_temperature;BME280_humidity;BME280_pressure;Samples;Min_cycle;Max_cycle;Signal;HPM_P1;HPM_P2
2023/12/28 00:00:06;;;;;;;30.07;24.20;;;6.80;61.40;;;;;;349616;28;871;-57
2023/12/28 00:00:18;;;;;;;31.88;24.98;;;6.80;61.50;;;;;;349599;28;1020;-57
2023/12/28 00:00:28;;;;;;;32.60;24.58;;;6.80;61.50;;;;;;349592;28;877;-57
2023/12/28 00:00:39;;;;;;;32.35;23.88;;;6.80;61.50;;;;;;349514;28;1104;-57
2023/12/28 00:00:50;;;;;;;30.85;23.27;;;6.80;61.60;;;;;;349511;28;989;-57
2023/12/28 00:01:01;;;;;;;31.27;23.35;;;6.80;61.50;;;;;;349556;28;1128;-57
2023/12/28 00:01:12;;;;;;;30.30;22.38;;;6.80;61.50;;;;;;349552;28;1072;-57
2023/12/28 00:01:23;;;;;;;30.23;22.55;;;6.80;61.40;;;;;;349611;28;803;-57
2023/12/28 00:01:34;;;;;;;29.73;22.83;;;6.80;61.50;;;;;;349461;28;1136;-57
2023/12/28 00:01:45;;;;;;;31.70;23.75;;;6.80;61.40;;;;;;349554;28;1109;-57
2023/12/28 00:01:56;;;;;;;32.10;23.70;;;6.80;61.40;;;;;;349516;28;1001;-57
2023/12/28 00:02:06;;;;;;;31.88;23.63;;;6.80;61.40;;;;;;349591;28;882;-57
2023/12/28 00:02:17;;;;;;;32.08;23.50;;;6.80;61.40;;;;;;349581;28;1664;-57
2023/12/28 00:02:28;;;;;;;31.87;23.97;;;6.80;61.40;;;;;;349698;28;1027;-57
2023/12/28 00:02:40;;;;;;;32.20;24.20;;;6.80;61.50;;;;;;349660;28;1000;-57
2023/12/28 00:02:51;;;;;;;32.30;24.42;;;6.80;61.40;;;;;;349667;28;957;-57
2023/12/28 00:03:02;;;;;;;31.80;23.53;;;6.80;61.50;;;;;;349625;28;910;-57
2023/12/28 00:03:13;;;;;;;31.02;22.95;;;6.80;61.50;;;;;;349702;28;996;-56
2023/12/28 00:03:23;;;;;;;30.13;22.77;;;6.80;61.50;;;;;;349701;28;1040;-56
2023/12/28 00:03:34;;;;;;;30.10;22.77;;;6.80;61.60;;;;;;349644;28;1000;-57
2023/12/28 00:03:45;;;;;;;30.30;22.90;;;6.80;61.50;;;;;;349563;28;1083;-56
2023/12/28 00:03:56;;;;;;;31.40;23.13;;;6.80;61.50;;;;;;349573;28;1004;-56
2023/12/28 00:04:06;;;;;;;31.73;23.40;;;6.80;61.50;;;;;;349543;28;1016;-56
2023/12/28 00:04:17;;;;;;;30.90;22.85;;;6.80;61.50;;;;;;349554;28;1000;-56
2023/12/28 00:04:28;;;;;;;30.05;22.95;;;6.80;61.50;;;;;;349460;28;898;-56
2023/12/28 00:04:39;;;;;;;30.25;22.63;;;6.80;61.60;;;;;;349702;28;1040;-57
2023/12/28 00:04:50;;;;;;;32.60;23.42;;;6.80;61.60;;;;;;349670;28;1281;-56
2023/12/28 00:05:00;;;;;;;34.17;24.27;;;6.80;61.60;;;;;;349711;28;985;-56
2023/12/28 00:05:11;;;;;;;35.13;24.50;;;6.80;61.50;;;;;;349614;28;904;-56
2023/12/28 00:05:22;;;;;;;34.05;24.88;;;6.80;61.50;;;;;;349700;28;1747;-56
2023/12/28 00:05:33;;;;;;;32.30;25.05;;;6.80;61.50;;;;;;349639;28;1083;-56
2023/12/28 00:05:43;;;;;;;31.10;25.08;;;6.80;61.50;;;;;;349704;28;1072;-57
2023/12/28 00:05:54;;;;;;;32.33;24.98;;;6.80;61.60;;;;;;349651;28;925;-58
2023/12/28 00:06:05;;;;;;;33.17;24.98;;;6.80;61.60;;;;;;349707;28;880;-56
2023/12/28 00:06:16;;;;;;;35.35;25.05;;;6.80;61.60;;;;;;349619;28;1124;-56
2023/12/28 00:06:27;;;;;;;35.08;25.17;;;6.70;61.60;;;;;;349645;28;884;-55
2023/12/28 00:06:38;;;;;;;33.85;24.55;;;6.70;61.60;;;;;;349527;28;1324;-57
2023/12/28 00:06:49;;;;;;;30.77;23.65;;;6.80;61.70;;;;;;349712;28;908;-56
2023/12/28 00:07:00;;;;;;;30.57;23.20;;;6.70;61.70;;;;;;349638;28;1182;-57
2023/12/28 00:07:12;;;;;;;30.98;23.92;;;6.70;61.70;;;;;;349710;28;1281;-56
2023/12/28 00:07:23;;;;;;;32.17;24.73;;;6.70;61.70;;;;;;349599;28;1154;-57
2023/12/28 00:07:33;;;;;;;32.47;24.73;;;6.70;61.70;;;;;;349691;28;924;-57
2023/12/28 00:07:44;;;;;;;32.95;24.83;;;6.70;61.70;;;;;;349656;28;1315;-56
2023/12/28 00:07:57;;;;;;;32.28;24.33;;;6.70;61.70;;;;;;349762;28;1032;-57
2023/12/28 00:08:08;;;;;;;32.95;24.38;;;6.70;61.70;;;;;;349593;28;1005;-57
2023/12/28 00:08:19;;;;;;;32.50;24.83;;;6.70;61.80;;;;;;349653;28;1158;-56
2023/12/28 00:08:32;;;;;;;33.50;25.48;;;6.70;61.80;;;;;;349772;28;884;-56
2023/12/28 00:08:43;;;;;;;32.30;25.58;;;6.70;61.80;;;;;;349644;28;1160;-56
2023/12/28 00:08:54;;;;;;;32.95;25.55;;;6.70;61.80;;;;;;349612;28;1028;-56
2023/12/28 00:09:04;;;;;;;33.05;25.38;;;6.70;61.80;;;;;;349706;28;1084;-56
2023/12/28 00:09:15;;;;;;;33.67;25.27;;;6.70;61.80;;;;;;349691;28;984;-57
2023/12/28 00:09:26;;;;;;;32.37;24.87;;;6.70;61.80;;;;;;349608;28;970;-57
2023/12/28 00:09:37;;;;;;;32.00;24.70;;;6.70;61.70;;;;;;349768;28;949;-57
2023/12/28 00:09:47;;;;;;;32.65;25.65;;;6.70;61.70;;;;;;349782;28;1065;-57
2023/12/28 00:09:58;;;;;;;35.80;26.95;;;6.70;61.70;;;;;;349580;28;1130;-57
2023/12/28 00:10:09;;;;;;;36.30;27.17;;;6.70;61.70;;;;;;349695;28;985;-56
2023/12/28 00:10:20;;;;;;;35.80;27.08;;;6.70;61.70;;;;;;349666;28;1503;-56
2023/12/28 00:10:31;;;;;;;36.00;26.60;;;6.70;61.80;;;;;;349602;28;980;-57
2023/12/28 00:10:42;;;;;;;35.80;26.67;;;6.70;61.80;;;;;;349675;28;1032;-56
2023/12/28 00:10:53;;;;;;;36.17;26.58;;;6.70;61.80;;;;;;349696;28;1075;-55
2023/12/28 00:11:04;;;;;;;36.25;26.40;;;6.70;61.80;;;;;;349672;28;1045;-56
2023/12/28 00:11:14;;;;;;;36.25;25.90;;;6.60;61.80;;;;;;349837;28;921;-56
2023/12/28 00:11:25;;;;;;;32.87;24.87;;;6.60;61.80;;;;;;349792;28;1028;-56
2023/12/28 00:11:36;;;;;;;32.72;25.02;;;6.60;61.80;;;;;;349590;28;1052;-57
2023/12/28 00:11:47;;;;;;;33.90;24.95;;;6.60;61.80;;;;;;349735;28;1946;-56
2023/12/28 00:11:59;;;;;;;35.35;25.02;;;6.60;61.90;;;;;;349783;28;913;-57
2023/12/28 00:12:09;;;;;;;32.58;24.15;;;6.60;61.80;;;;;;349636;28;1660;-57
2023/12/28 00:12:22;;;;;;;30.40;24.05;;;6.60;61.90;;;;;;349723;28;1965;-57
2023/12/28 00:12:33;;;;;;;30.77;24.60;;;6.60;61.90;;;;;;349676;28;1016;-57
2023/12/28 00:12:43;;;;;;;32.05;24.77;;;6.60;61.90;;;;;;349802;28;1107;-57
2023/12/28 00:12:54;;;;;;;34.08;24.85;;;6.60;61.90;;;;;;349822;28;1006;-57
2023/12/28 00:13:05;;;;;;;34.88;24.70;;;6.60;61.90;;;;;;349743;28;1216;-57
2023/12/28 00:13:16;;;;;;;33.45;24.40;;;6.60;62.00;;;;;;349844;28;1984;-57
2023/12/28 00:13:27;;;;;;;33.83;24.30;;;6.60;62.10;;;;;;349789;28;1324;-57
2023/12/28 00:13:37;;;;;;;33.60;24.33;;;6.60;62.10;;;;;;349512;28;1982;-58
2023/12/28 00:13:48;;;;;;;34.55;25.17;;;6.60;62.10;;;;;;349810;28;889;-57
2023/12/28 00:13:59;;;;;;;35.50;25.63;;;6.60;62.10;;;;;;349711;28;1036;-57
2023/12/28 00:14:10;;;;;;;35.60;26.27;;;6.60;62.10;;;;;;349764;28;1013;-60
2023/12/28 00:14:21;;;;;;;33.92;25.88;;;6.60;62.00;;;;;;349710;28;1170;-58
2023/12/28 00:14:31;;;;;;;33.17;25.88;;;6.60;62.00;;;;;;349712;28;1048;-62
2023/12/28 00:14:42;;;;;;;34.03;25.80;;;6.60;62.00;;;;;;349716;28;1119;-58
2023/12/28 00:14:53;;;;;;;33.47;25.75;;;6.50;61.90;;;;;;349667;28;1131;-58
2023/12/28 00:15:04;;;;;;;33.25;25.30;;;6.60;62.00;;;;;;349614;28;1071;-57
2023/12/28 00:15:15;;;;;;;30.98;24.63;;;6.50;61.90;;;;;;349713;28;939;-58
2023/12/28 00:15:26;;;;;;;32.38;24.60;;;6.60;61.90;;;;;;349588;28;1091;-57
2023/12/28 00:15:37;;;;;;;31.02;24.35;;;6.50;61.90;;;;;;349739;28;901;-57
2023/12/28 00:15:47;;;;;;;30.63;23.92;;;6.50;61.90;;;;;;349522;28;1349;-58
2023/12/28 00:15:58;;;;;;;29.63;23.05;;;6.50;61.90;;;;;;349703;28;1476;-60
2023/12/28 00:16:09;;;;;;;30.02;23.17;;;6.50;61.90;;;;;;349668;28;1642;-56
2023/12/28 00:16:20;;;;;;;30.83;23.27;;;6.50;61.90;;;;;;349694;28;1108;-58
2023/12/28 00:16:36;;;;;;;30.60;23.33;;;6.50;62.00;;;;;;349698;28;1060;-57
2023/12/28 00:16:47;;;;;;;30.02;23.30;;;6.50;62.00;;;;;;349705;28;830;-57
2023/12/28 00:16:58;;;;;;;30.05;23.42;;;6.50;62.00;;;;;;349651;28;874;-57
2023/12/28 00:17:08;;;;;;;30.83;23.85;;;6.50;62.00;;;;;;349668;28;944;-56
2023/12/28 00:17:19;;;;;;;31.53;23.90;;;6.50;62.00;;;;;;349646;28;1263;-57
2023/12/28 00:17:30;;;;;;;30.63;23.77;;;6.50;62.00;;;;;;349689;28;1083;-57
2023/12/28 00:17:41;;;;;;;29.85;23.48;;;6.50;62.00;;;;;;349679;28;1107;-56
2023/12/28 00:17:52;;;;;;;29.30;23.10;;;6.50;62.00;;;;;;349694;28;846;-57
2023/12/28 00:18:03;;;;;;;29.55;22.58;;;6.50;62.00;;;;;;349658;28;952;-57
2023/12/28 00:18:14;;;;;;;29.40;22.25;;;6.50;62.00;;;;;;349721;28;980;-56
2023/12/28 00:18:25;;;;;;;29.63;22.50;;;6.50;62.00;;;;;;349653;28;959;-57
2023/12/28 00:18:36;;;;;;;30.20;22.80;;;6.50;62.00;;;;;;349783;28;913;-57
2023/12/28 00:18:46;;;;;;;30.05;22.63;;;6.50;62.10;;;;;;349541;28;1137;-57
2023/12/28 00:18:57;;;;;;;29.73;23.20;;;6.50;62.10;;;;;;349747;28;1267;-57
2023/12/28 00:19:08;;;;;;;29.60;23.52;;;6.50;62.10;;;;;;349507;28;1244;-56
2023/12/28 00:19:20;;;;;;;30.07;23.80;;;6.50;62.10;;;;;;349672;28;1032;-57
2023/12/28 00:19:31;;;;;;;29.55;23.00;;;6.50;62.10;;;;;;349577;28;1020;-57
2023/12/28 00:19:42;;;;;;;28.70;22.80;;;6.50;62.10;;;;;;349718;28;960;-56
2023/12/28 00:19:53;;;;;;;27.13;21.77;;;6.50;62.10;;;;;;349645;28;933;-57
2023/12/28 00:20:04;;;;;;;27.07;22.03;;;6.50;62.10;;;;;;349747;28;854;-57
2023/12/28 00:20:15;;;;;;;28.67;22.77;;;6.50;62.10;;;;;;349649;28;1044;-56
2023/12/28 00:20:25;;;;;;;31.30;24.03;;;6.40;62.10;;;;;;349786;28;898;-57
2023/12/28 00:20:36;;;;;;;33.30;24.07;;;6.50;62.10;;;;;;349616;28;851;-56
2023/12/28 00:20:47;;;;;;;33.72;24.13;;;6.50;62.00;;;;;;349671;28;1076;-57
2023/12/28 00:20:57;;;;;;;32.08;23.73;;;6.50;62.00;;;;;;349598;28;1170;-58
2023/12/28 00:21:08;;;;;;;31.77;24.00;;;6.40;62.00;;;;;;349712;28;842;-57
2023/12/28 00:21:19;;;;;;;31.23;23.97;;;6.40;62.00;;;;;;349614;28;1083;-57
2023/12/28 00:21:30;;;;;;;32.67;24.85;;;6.40;62.00;;;;;;349693;28;984;-58
2023/12/28 00:21:41;;;;;;;32.83;24.90;;;6.50;62.00;;;;;;349546;28;1043;-57
2023/12/28 00:21:52;;;;;;;33.73;24.70;;;6.40;62.10;;;;;;349684;28;873;-57
2023/12/28 00:22:03;;;;;;;33.58;24.40;;;6.40;62.10;;;;;;349573;28;1032;-58
2023/12/28 00:22:13;;;;;;;31.75;23.90;;;6.40;62.10;;;;;;349665;28;996;-57
2023/12/28 00:22:24;;;;;;;30.88;23.85;;;6.40;62.20;;;;;;349575;28;1674;-57
2023/12/28 00:22:37;;;;;;;32.33;23.92;;;6.40;62.20;;;;;;349623;28;1010;-56
2023/12/28 00:22:47;;;;;;;33.15;24.23;;;6.40;62.20;;;;;;349555;28;1051;-57
2023/12/28 00:22:59;;;;;;;30.13;23.52;;;6.40;62.20;;;;;;349735;28;928;-56
2023/12/28 00:23:09;;;;;;;30.50;23.00;;;6.40;62.20;;;;;;349609;28;1039;-56
2023/12/28 00:23:20;;;;;;;31.70;23.10;;;6.40;62.20;;;;;;349686;28;1043;-56
2023/12/28 00:23:31;;;;;;;33.97;23.80;;;6.40;62.20;;;;;;349583;28;995;-58
2023/12/28 00:23:42;;;;;;;33.17;23.85;;;6.40;62.20;;;;;;349647;28;1058;-57
2023/12/28 00:23:52;;;;;;;31.25;23.80;;;6.40;62.30;;;;;;349685;28;1035;-57
2023/12/28 00:24:03;;;;;;;30.50;23.67;;;6.40;62.30;;;;;;349691;28;1259;-57
2023/12/28 00:24:16;;;;;;;31.45;23.58;;;6.40;62.30;;;;;;349657;28;912;-57
2023/12/28 00:24:26;;;;;;;32.67;24.13;;;6.40;62.30;;;;;;349568;28;1945;-57
2023/12/28 00:24:37;;;;;;;33.63;24.67;;;6.30;62.30;;;;;;349636;28;1043;-58
2023/12/28 00:24:48;;;;;;;32.63;24.63;;;6.40;62.30;;;;;;349740;28;876;-58
2023/12/28 00:24:59;;;;;;;32.10;24.50;;;6.40;62.30;;;;;;349630;28;2083;-57
2023/12/28 00:25:09;;;;;;;32.30;24.73;;;6.40;62.30;;;;;;349737;28;833;-58
2023/12/28 00:25:20;;;;;;;32.15;24.25;;;6.40;62.30;;;;;;349592;28;1266;-58
2023/12/28 00:25:31;;;;;;;32.42;24.27;;;6.40;62.30;;;;;;349649;28;1222;-58
2023/12/28 00:25:42;;;;;;;35.37;25.17;;;6.40;62.40;;;;;;349653;28;1091;-57
2023/12/28 00:25:52;;;;;;;35.55;25.83;;;6.30;62.40;;;;;;349669;28;1099;-57
2023/12/28 00:26:03;;;;;;;36.45;26.27;;;6.40;62.40;;;;;;349659;28;1115;-57
2023/12/28 00:26:14;;;;;;;35.03;26.05;;;6.40;62.50;;;;;;349586;28;1052;-57
2023/12/28 00:26:25;;;;;;;34.17;25.52;;;6.30;62.50;;;;;;349674;28;1083;-58
2023/12/28 00:26:36;;;;;;;32.58;24.95;;;6.30;62.50;;;;;;349670;28;1075;-57
2023/12/28 00:26:47;;;;;;;34.08;25.15;;;6.30;62.50;;;;;;349704;28;1015;-54
2023/12/28 00:26:57;;;;;;;34.30;25.37;;;6.30;62.50;;;;;;349697;28;1028;-59
2023/12/28 00:27:08;;;;;;;33.67;24.88;;;6.40;62.50;;;;;;349787;28;1115;-57
2023/12/28 00:27:19;;;;;;;32.13;24.42;;;6.30;62.50;;;;;;350095;28;983;-58
2023/12/28 00:27:30;;;;;;;32.00;24.33;;;6.30;62.40;;;;;;349936;28;1091;-56
2023/12/28 00:27:40;;;;;;;32.38;24.75;;;6.30;62.40;;;;;;349976;28;920;-58
2023/12/28 00:27:51;;;;;;;30.90;24.42;;;6.30;62.50;;;;;;350053;28;1079;-58
2023/12/28 00:28:02;;;;;;;30.53;24.17;;;6.30;62.50;;;;;;349804;28;1552;-58
2023/12/28 00:28:13;;;;;;;32.25;24.33;;;6.30;62.60;;;;;;349934;28;1107;-56
2023/12/28 00:28:24;;;;;;;32.80;24.20;;;6.40;62.60;;;;;;349988;28;1870;-56
2023/12/28 00:28:35;;;;;;;33.53;24.83;;;6.40;62.60;;;;;;349911;28;1146;-57
2023/12/28 00:28:45;;;;;;;33.03;24.95;;;6.30;62.60;;;;;;349994;28;919;-57
2023/12/28 00:28:56;;;;;;;32.47;24.98;;;6.30;62.60;;;;;;349987;28;1891;-57
2023/12/28 00:29:07;;;;;;;32.95;24.90;;;6.30;62.60;;;;;;349966;28;1047;-56
2023/12/28 00:29:18;;;;;;;32.00;24.83;;;6.30;62.60;;;;;;349995;28;1019;-56
2023/12/28 00:29:29;;;;;;;33.10;25.17;;;6.30;62.60;;;;;;350109;28;1637;-56
2023/12/28 00:29:41;;;;;;;33.65;24.85;;;6.30;62.60;;;;;;350066;28;942;-56
2023/12/28 00:29:51;;;;;;;34.03;25.38;;;6.30;62.60;;;;;;349881;28;1597;-56
2023/12/28 00:30:02;;;;;;;34.00;25.80;;;6.30;62.60;;;;;;350093;28;1015;-60
2023/12/28 00:30:13;;;;;;;35.40;26.65;;;6.30;62.60;;;;;;349943;28;1111;-57
2023/12/28 00:30:24;;;;;;;33.90;26.30;;;6.30;62.60;;;;;;349904;28;1960;-57
2023/12/28 00:30:35;;;;;;;33.13;25.80;;;6.30;62.70;;;;;;349976;28;1095;-58
2023/12/28 00:30:45;;;;;;;32.72;25.60;;;6.30;62.60;;;;;;350235;28;1004;-57
2023/12/28 00:30:56;;;;;;;32.72;25.42;;;6.30;62.60;;;;;;349957;28;822;-55
2023/12/28 00:31:09;;;;;;;33.20;25.00;;;6.30;62.60;;;;;;350146;28;1862;-57
2023/12/28 00:31:19;;;;;;;32.42;24.48;;;6.30;62.60;;;;;;350173;28;1118;-56
2023/12/28 00:31:30;;;;;;;33.45;24.45;;;6.30;62.70;;;;;;350102;28;1043;-59
2023/12/28 00:31:41;;;;;;;33.50;24.65;;;6.30;62.70;;;;;;349899;28;1071;-56
2023/12/28 00:31:52;;;;;;;33.67;24.87;;;6.30;62.70;;;;;;350012;28;925;-58
2023/12/28 00:32:03;;;;;;;32.80;24.70;;;6.30;62.70;;;;;;349981;28;1154;-56
2023/12/28 00:32:13;;;;;;;32.00;24.75;;;6.30;62.60;;;;;;349917;28;1448;-56
2023/12/28 00:32:24;;;;;;;33.30;24.38;;;6.30;62.50;;;;;;349998;28;1032;-57
2023/12/28 00:32:35;;;;;;;33.90;24.98;;;6.30;62.50;;;;;;349932;28;942;-57
2023/12/28 00:32:45;;;;;;;34.40;24.80;;;6.30;62.50;;;;;;349961;28;1067;-57
2023/12/28 00:32:56;;;;;;;33.77;24.93;;;6.30;62.50;;;;;;349825;28;798;-57
2023/12/28 00:33:07;;;;;;;34.45;24.88;;;6.30;62.60;;;;;;349683;28;1020;-56
2023/12/28 00:33:18;;;;;;;35.90;25.17;;;6.30;62.60;;;;;;349624;28;1041;-56
2023/12/28 00:33:28;;;;;;;35.38;25.17;;;6.30;62.60;;;;;;349615;28;1123;-56
2023/12/28 00:33:39;;;;;;;32.73;24.00;;;6.30;62.70;;;;;;349583;28;2005;-57
2023/12/28 00:33:50;;;;;;;31.37;23.97;;;6.30;62.80;;;;;;349742;28;992;-56
2023/12/28 00:34:01;;;;;;;31.63;24.35;;;6.30;62.80;;;;;;349555;28;1055;-56
2023/12/28 00:34:12;;;;;;;32.08;24.48;;;6.30;62.80;;;;;;349643;28;1554;-56
2023/12/28 00:34:22;;;;;;;32.10;24.13;;;6.30;62.80;;;;;;349673;28;1934;-56
2023/12/28 00:34:33;;;;;;;31.70;23.65;;;6.30;62.70;;;;;;349633;28;1032;-57
2023/12/28 00:34:44;;;;;;;31.73;23.80;;;6.30;62.70;;;;;;349575;28;1550;-56
2023/12/28 00:34:55;;;;;;;32.57;24.00;;;6.30;62.70;;;;;;349668;28;1170;-56
2023/12/28 00:35:06;;;;;;;30.83;23.40;;;6.30;62.70;;;;;;349705;28;992;-57
2023/12/28 00:35:16;;;;;;;31.52;22.60;;;6.30;62.60;;;;;;349555;28;1657;-56
2023/12/28 00:35:27;;;;;;;31.55;22.48;;;6.30;62.60;;;;;;349644;28;931;-56
2023/12/28 00:35:38;;;;;;;31.73;23.00;;;6.30;62.60;;;;;;349683;28;826;-58
2023/12/28 00:35:49;;;;;;;31.27;23.45;;;6.30;62.50;;;;;;349615;28;1103;-57
2023/12/28 00:35:59;;;;;;;32.90;24.00;;;6.30;62.50;;;;;;349683;28;1036;-56
2023/12/28 00:36:10;;;;;;;33.78;24.02;;;6.30;62.40;;;;;;349619;28;1031;-56
2023/12/28 00:36:21;;;;;;;34.33;24.48;;;6.30;62.40;;;;;;349713;28;897;-56
2023/12/28 00:36:32;;;;;;;33.67;24.30;;;6.30;62.40;;;;;;349505;28;1222;-56
2023/12/28 00:36:42;;;;;;;33.33;24.05;;;6.30;62.40;;;;;;349625;28;1075;-56
2023/12/28 00:36:53;;;;;;;32.03;23.47;;;6.30;62.40;;;;;;349648;28;954;-56
2023/12/28 00:37:04;;;;;;;32.20;23.27;;;6.30;62.50;;;;;;349680;28;901;-57
2023/12/28 00:37:15;;;;;;;32.10;23.17;;;6.30;62.50;;;;;;349701;28;1783;-57
2023/12/28 00:37:25;;;;;;;30.83;22.65;;;6.30;62.50;;;;;;349634;28;1421;-57
2023/12/28 00:37:36;;;;;;;30.60;22.17;;;6.30;62.50;;;;;;349554;28;964;-57
2023/12/28 00:37:47;;;;;;;31.77;22.07;;;6.30;62.50;;;;;;349649;28;1004;-57
2023/12/28 00:37:58;;;;;;;31.75;22.10;;;6.30;62.50;;;;;;349592;28;1075;-56
2023/12/28 00:38:09;;;;;;;30.77;22.67;;;6.30;62.50;;;;;;349621;28;1375;-55
2023/12/28 00:38:20;;;;;;;29.27;22.83;;;6.30;62.50;;;;;;349613;28;895;-56
2023/12/28 00:38:30;;;;;;;29.80;23.03;;;6.30;62.40;;;;;;349630;28;1154;-57
2023/12/28 00:38:41;;;;;;;30.42;23.15;;;6.30;62.50;;;;;;349576;28;1125;-56
2023/12/28 00:38:52;;;;;;;32.08;23.60;;;6.30;62.50;;;;;;349642;28;1170;-56
2023/12/28 00:39:03;;;;;;;31.70;23.40;;;6.30;62.50;;;;;;349550;28;1016;-57
2023/12/28 00:39:15;;;;;;;32.92;23.55;;;6.30;62.50;;;;;;349681;28;1036;-56
2023/12/28 00:39:25;;;;;;;33.45;23.15;;;6.30;62.50;;;;;;349647;28;1470;-57
2023/12/28 00:39:36;;;;;;;32.05;22.88;;;6.30;62.50;;;;;;349540;28;1039;-56
2023/12/28 00:39:49;;;;;;;30.10;22.80;;;6.20;62.50;;;;;;349682;28;1027;-56
2023/12/28 00:40:00;;;;;;;28.90;22.35;;;6.30;62.50;;;;;;349687;28;966;-56
2023/12/28 00:40:11;;;;;;;30.67;22.92;;;6.30;62.50;;;;;;349568;28;1784;-56
2023/12/28 00:40:22;;;;;;;31.25;23.35;;;6.30;62.50;;;;;;349622;28;1028;-56
2023/12/28 00:40:33;;;;;;;34.35;24.58;;;6.30;62.50;;;;;;349656;28;996;-56
2023/12/28 00:40:43;;;;;;;33.22;23.63;;;6.20;62.50;;;;;;349565;28;1111;-56
2023/12/28 00:40:54;;;;;;;32.38;23.77;;;6.30;62.50;;;;;;349671;28;1877;-56
2023/12/28 00:41:05;;;;;;;31.47;23.57;;;6.20;62.50;;;;;;349688;28;957;-56
2023/12/28 00:41:16;;;;;;;33.45;24.25;;;6.30;62.50;;;;;;349564;28;1028;-56
2023/12/28 00:41:26;;;;;;;33.83;24.08;;;6.20;62.50;;;;;;349681;28;842;-56
2023/12/28 00:41:37;;;;;;;35.30;24.48;;;6.30;62.50;;;;;;349623;28;1243;-56
2023/12/28 00:41:48;;;;;;;34.35;24.10;;;6.30;62.50;;;;;;349542;28;1108;-58
2023/12/28 00:41:59;;;;;;;32.83;24.13;;;6.30;62.50;;;;;;349685;28;822;-56
2023/12/28 00:42:09;;;;;;;30.13;23.37;;;6.20;62.50;;;;;;349604;28;1028;-57
2023/12/28 00:42:20;;;;;;;29.30;23.02;;;6.20;62.50;;;;;;349585;28;1032;-56
2023/12/28 00:42:31;;;;;;;31.10;22.50;;;6.20;62.50;;;;;;349656;28;988;-57
2023/12/28 00:42:42;;;;;;;30.75;22.17;;;6.30;62.60;;;;;;349636;28;1038;-58
2023/12/28 00:42:53;;;;;;;30.77;22.70;;;6.20;62.60;;;;;;349582;28;1935;-57
2023/12/28 00:43:03;;;;;;;28.25;22.65;;;6.20;62.50;;;;;;349671;28;1032;-57
2023/12/28 00:43:14;;;;;;;27.80;22.10;;;6.20;62.60;;;;;;349631;28;1166;-56
2023/12/28 00:43:25;;;;;;;28.38;22.27;;;6.20;62.60;;;;;;349502;28;2605;-57
2023/12/28 00:43:36;;;;;;;31.02;23.13;;;6.30;62.60;;;;;;349705;28;826;-56
2023/12/28 00:43:46;;;;;;;33.38;23.95;;;6.20;62.60;;;;;;349664;28;854;-56
2023/12/28 00:43:57;;;;;;;32.53;23.17;;;6.20;62.60;;;;;;349680;28;1047;-57
2023/12/28 00:44:09;;;;;;;32.03;23.02;;;6.20;62.60;;;;;;349567;28;1063;-56
2023/12/28 00:44:20;;;;;;;32.38;23.38;;;6.20;62.60;;;;;;349643;28;940;-57
2023/12/28 00:44:30;;;;;;;34.17;24.10;;;6.20;62.60;;;;;;349652;28;1067;-56
2023/12/28 00:44:41;;;;;;;33.85;23.77;;;6.20;62.60;;;;;;349707;28;897;-56
2023/12/28 00:44:53;;;;;;;31.73;22.98;;;6.20;62.60;;;;;;349551;28;1289;-56
2023/12/28 00:45:04;;;;;;;30.80;22.77;;;6.20;62.60;;;;;;349562;28;1309;-58
2023/12/28 00:45:15;;;;;;;31.30;22.80;;;6.20;62.50;;;;;;349666;28;914;-56
2023/12/28 00:45:25;;;;;;;32.65;23.30;;;6.20;62.50;;;;;;349641;28;841;-58
2023/12/28 00:45:36;;;;;;;32.22;23.52;;;6.20;62.50;;;;;;349553;28;1075;-56
2023/12/28 00:45:47;;;;;;;32.58;23.50;;;6.20;62.40;;;;;;349669;28;1275;-56
2023/12/28 00:45:58;;;;;;;32.33;22.92;;;6.20;62.40;;;;;;349680;28;880;-57
2023/12/28 00:46:08;;;;;;;31.50;22.65;;;6.20;62.40;;;;;;349638;28;943;-56
2023/12/28 00:46:19;;;;;;;29.70;22.57;;;6.20;62.30;;;;;;349612;28;1897;-56
2023/12/28 00:46:30;;;;;;;29.42;22.58;;;6.20;62.30;;;;;;349650;28;854;-57
2023/12/28 00:46:41;;;;;;;30.40;22.75;;;6.20;62.30;;;;;;349633;28;1329;-56
2023/12/28 00:46:51;;;;;;;30.67;23.20;;;6.20;62.30;;;;;;349690;28;1044;-56
2023/12/28 00:47:02;;;;;;;30.52;23.13;;;6.20;62.20;;;;;;349820;28;1072;-57
2023/12/28 00:47:13;;;;;;;31.03;23.03;;;6.20;62.20;;;;;;349653;28;806;-57
2023/12/28 00:47:24;;;;;;;30.55;23.17;;;6.20;62.20;;;;;;349669;28;1115;-57
2023/12/28 00:47:34;;;;;;;31.08;23.42;;;6.20;62.20;;;;;;349645;28;1107;-57
2023/12/28 00:47:45;;;;;;;31.42;23.60;;;6.20;62.20;;;;;;349560;28;1063;-58
2023/12/28 00:47:56;;;;;;;32.35;23.50;;;6.20;62.20;;;;;;349611;28;1123;-56
2023/12/28 00:48:07;;;;;;;31.73;23.08;;;6.20;62.20;;;;;;349669;28;1111;-56
2023/12/28 00:48:18;;;;;;;29.65;22.17;;;6.20;62.20;;;;;;349648;28;1000;-56
2023/12/28 00:48:28;;;;;;;29.77;22.27;;;6.20;62.20;;;;;;349595;28;1071;-57
2023/12/28 00:48:39;;;;;;;31.20;23.10;;;6.20;62.20;;;;;;349634;28;1431;-57
2023/12/28 00:48:50;;;;;;;33.60;23.65;;;6.20;62.20;;;;;;349607;28;1127;-56
2023/12/28 00:49:01;;;;;;;31.73;23.00;;;6.20;62.20;;;;;;349677;28;1036;-57
2023/12/28 00:49:11;;;;;;;31.38;22.52;;;6.20;62.20;;;;;;349645;28;926;-56
2023/12/28 00:49:22;;;;;;;30.10;21.70;;;6.20;62.20;;;;;;349658;28;1865;-57
2023/12/28 00:49:33;;;;;;;29.98;21.27;;;6.20;62.20;;;;;;349693;28;952;-56
2023/12/28 00:49:44;;;;;;;30.15;21.77;;;6.20;62.10;;;;;;349645;28;880;-56
2023/12/28 00:49:54;;;;;;;29.33;21.98;;;6.20;62.00;;;;;;349608;28;1024;-57
2023/12/28 00:50:06;;;;;;;30.33;22.73;;;6.20;62.00;;;;;;349633;28;1158;-56
2023/12/28 00:50:16;;;;;;;29.60;22.17;;;6.20;62.00;;;;;;349659;28;2634;-56
2023/12/28 00:50:31;;;;;;;30.48;22.15;;;6.20;62.00;;;;;;349660;28;1055;-56
2023/12/28 00:50:42;;;;;;;31.90;22.67;;;6.20;62.00;;;;;;349642;28;1097;-57
2023/12/28 00:50:55;;;;;;;32.57;22.80;;;6.20;62.00;;;;;;349676;28;1012;-56
2023/12/28 00:51:05;;;;;;;32.40;22.55;;;6.20;62.00;;;;;;349684;28;877;-57
2023/12/28 00:51:16;;;;;;;30.33;22.13;;;6.20;62.00;;;;;;349542;28;2074;-56
2023/12/28 00:51:27;;;;;;;33.60;22.75;;;6.20;62.00;;;;;;349619;28;1321;-57
2023/12/28 00:51:38;;;;;;;33.70;23.17;;;6.20;62.00;;;;;;349652;28;1111;-57
2023/12/28 00:51:48;;;;;;;35.57;23.07;;;6.20;61.90;;;;;;349637;28;1855;-56
2023/12/28 00:51:59;;;;;;;31.95;22.85;;;6.20;61.90;;;;;;349557;28;1092;-56
2023/12/28 00:52:10;;;;;;;29.80;22.25;;;6.20;62.00;;;;;;349662;28;1000;-56
2023/12/28 00:52:21;;;;;;;28.95;21.98;;;6.20;62.10;;;;;;349694;28;822;-56
2023/12/28 00:52:31;;;;;;;29.35;22.17;;;6.20;62.00;;;;;;349597;28;1416;-56
2023/12/28 00:52:42;;;;;;;32.57;23.07;;;6.20;62.00;;;;;;349584;28;1040;-56
2023/12/28 00:52:53;;;;;;;31.90;23.17;;;6.20;62.00;;;;;;349716;28;857;-57
2023/12/28 00:53:04;;;;;;;32.67;23.00;;;6.20;62.00;;;;;;349689;28;842;-56
2023/12/28 00:53:15;;;;;;;29.67;22.83;;;6.20;62.00;;;;;;349625;28;2380;-56
2023/12/28 00:53:26;;;;;;;30.75;23.15;;;6.20;61.90;;;;;;349534;28;2717;-56
2023/12/28 00:53:37;;;;;;;31.85;23.45;;;6.20;61.90;;;;;;349565;28;1969;-56
2023/12/28 00:53:48;;;;;;;30.98;22.85;;;6.10;61.90;;;;;;349711;28;889;-57
2023/12/28 00:53:59;;;;;;;31.37;22.30;;;6.10;61.90;;;;;;349682;28;1126;-56
2023/12/28 00:54:09;;;;;;;29.67;21.95;;;6.10;61.90;;;;;;349588;28;1012;-57
2023/12/28 00:54:20;;;;;;;30.17;22.65;;;6.10;61.90;;;;;;349645;28;1287;-57
2023/12/28 00:54:31;;;;;;;29.20;23.30;;;6.10;61.90;;;;;;349609;28;1111;-57
2023/12/28 00:54:41;;;;;;;29.52;23.58;;;6.10;61.90;;;;;;349658;28;996;-57
2023/12/28 00:54:52;;;;;;;30.90;23.60;;;6.10;61.90;;;;;;349660;28;899;-63
2023/12/28 00:55:04;;;;;;;32.35;24.13;;;6.10;61.90;;;;;;349646;28;1553;-56
2023/12/28 00:55:15;;;;;;;32.97;24.42;;;6.10;61.90;;;;;;349664;28;957;-56
2023/12/28 00:55:27;;;;;;;31.73;23.90;;;6.10;62.00;;;;;;349625;28;1966;-56
2023/12/28 00:55:38;;;;;;;32.60;24.10;;;6.10;62.00;;;;;;349593;28;1320;-59
2023/12/28 00:55:49;;;;;;;32.38;23.65;;;6.10;62.00;;;;;;349729;28;1123;-56
2023/12/28 00:56:00;;;;;;;32.95;23.90;;;6.10;62.00;;;;;;349614;28;1036;-56
2023/12/28 00:56:11;;;;;;;32.58;23.23;;;6.10;62.10;;;;;;349725;28;1059;-56
2023/12/28 00:56:21;;;;;;;31.27;23.20;;;6.10;62.10;;;;;;349682;28;1047;-56
2023/12/28 00:56:32;;;;;;;31.05;23.30;;;6.10;62.10;;;;;;349730;28;896;-56
2023/12/28 00:56:43;;;;;;;31.60;23.60;;;6.10;62.00;;;;;;349689;28;1067;-58
2023/12/28 00:56:54;;;;;;;30.40;22.77;;;6.10;62.00;;;;;;349687;28;1015;-58
2023/12/28 00:57:05;;;;;;;30.05;22.45;;;6.10;62.00;;;;;;349648;28;930;-57
2023/12/28 00:57:15;;;;;;;30.45;22.67;;;6.10;62.00;;;;;;349720;28;1181;-59
2023/12/28 00:57:26;;;;;;;33.30;24.13;;;6.10;62.10;;;;;;349669;28;1103;-57
2023/12/28 00:57:37;;;;;;;35.38;24.80;;;6.10;62.10;;;;;;349542;28;1455;-56
2023/12/28 00:57:48;;;;;;;33.38;24.25;;;6.10;62.10;;;;;;349597;28;1544;-56